NWWM

Nouméa Magenta Airport

Nouméa, New Caledonia
TAF NWWM 181700Z 1818/1918 VRB02KT 9999 FEW020 TEMPO 1818/1821 BKN008 BECMG 1822/1824 14010KT
Issued Valid From Valid To
Oct-18 @ 17:00 UTC
(16 hours ago)
Oct-18 @ 18:00 UTC
(15 hours ago)
Oct-19 @ 18:00 UTC
(in 9 hours)
Expired Click to View Oct-18 @ 18:00 to Oct-18 @ 22:00
TAF NWWM 181700Z 1818/1918 VRB02KT 9999 FEW020
Wind Visibility Clouds
Variable at 2 knots 10,000+ meters
  • Few at 2,000' AGL
Expired Click to View Oct-18 @ 18:00 to Oct-18 @ 21:00
TEMPO 1818/1821 BKN008
Clouds
  • Broken at 800' AGL
Becoming Oct-18 @ 22:00 to Oct-19 @ 18:00
BECMG 1822/1824 14010KT
Wind Visibility Clouds
140° at 10 knots 10,000+ meters
  • Few at 2,000' AGL
TAF NWWM 181700Z 1818/1918 VRB02KT 9999 FEW020 TEMPO 1818/1821 BKN008 BECMG 1822/1824 14010KT
Issued Oct-18 @ 17:00 UTC
(16 hours ago)
Valid From Oct-18 @ 18:00 UTC
(15 hours ago)
Valid To Oct-19 @ 18:00 UTC
(in 9 hours)
Oct-18 @ 18:00 - Oct-18 @ 22:00
Wind Visibility
Variable at 2 knots 10,000+ meters
Clouds
  • Few at 2,000' AGL
Oct-18 @ 18:00 - Oct-18 @ 21:00
Clouds
  • Broken at 800' AGL
Becoming Oct-18 @ 22:00 - Oct-19 @ 18:00
Wind Visibility
140° at 10 knots 10,000+ meters
Clouds
  • Few at 2,000' AGL